Aérodrome :
LOGIN :

S'inscrire | Disclaimer

   EN    FR    IT 

 










Légende :    VFR   VFR Marginal   IFR   IFR Intensif   IFR Très Intensif
Visi : 
Plafond : 
>= 8 km
>= 3000ft
5 à 8 km
1000 à 3000 ft
1500m à 5 km
500 à 1000 ft
800 à 1500m
200 à 500 ft
< 800m
< 200 ft
Symboles :   Orages  Brouillard  Fortes neiges  Fortes précipitations  Vent > 20 kt
SIGMETs :   Divers  Orages  Givrage  Turbulence  Onde Orograph.  Cendres Volcan.







- Altitude de l'aérodrome : 913 ft
- Voir les cartes d'approche


LFSX - Luxeuil

DERNIER METAR :
  • 210900Z AUTO VRB01KT 9999 FEW018 BKN043 BKN049 24/18 Q1023

METARs EXPIRÉS :
  • 210830Z AUTO VRB03KT 9999 FEW014 BKN042 BKN048 23/18 Q1022
  • 210800Z AUTO VRB02KT 9999 BKN012 22/19 Q1022
  • 210730Z AUTO 15003KT 090V180 9999 SCT010 BKN042 BKN058 21/19 Q1022
  • 210700Z AUTO VRB02KT 9999 BKN008 OVC043 20/19 Q1022
  • 210630Z AUTO 12004KT 9999 BKN008 OVC064 20/19 Q1022

TAF TAF LFSX
Valide du 21 à 09h jusqu'au 22 à 09h UTC


210800Z 2109/2209 15005KT 9999 SCT010 BKN045
Pas de NOTAMs connus pour ce terrain.



MET'MAP, la Météo Aéronautique d'un coup d'oeil ! - Copyright ORBIFLY Décembre 2007 - Disclaimer

ORBIFLY MET'MAP TEAM :

Programmation & Développement : Alexandra Zaïnal
Conception & Développement : Baudouin d'Aumeries
Co-Programmation & Développement : Marc-Olivier Méhu
Soutien technique & logistique : Manuel Goepfert

Contact : metmap@orbifly.com




SOURCES & CREDITS :

   NOAA